createdAt,value
2018-03-11T00:00:28.775Z,8.60
2018-03-11T00:03:00.231Z,8.70
2018-03-11T00:05:29.142Z,8.60
2018-03-11T00:07:58.319Z,8.70
2018-03-11T00:10:26.992Z,8.60
2018-03-11T00:12:55.618Z,8.60
2018-03-11T00:15:25.805Z,8.50
2018-03-11T00:17:53.996Z,8.60
2018-03-11T00:20:22.533Z,8.70
2018-03-11T00:22:50.240Z,8.70
2018-03-11T00:25:20.880Z,8.70
2018-03-11T00:27:51.289Z,8.70
2018-03-11T00:30:19.149Z,8.70
2018-03-11T00:32:47.437Z,8.70
2018-03-11T00:35:15.883Z,8.70
2018-03-11T00:37:44.441Z,8.70
2018-03-11T00:40:12.337Z,8.70
2018-03-11T00:42:42.089Z,8.70
2018-03-11T00:45:09.887Z,8.80
2018-03-11T00:47:38.319Z,8.80
2018-03-11T00:50:06.811Z,8.80
2018-03-11T00:52:36.565Z,8.80
2018-03-11T00:55:05.169Z,8.90
2018-03-11T00:57:33.171Z,8.90
2018-03-11T01:00:01.441Z,9.00
2018-03-11T01:02:30.662Z,8.90
2018-03-11T01:04:58.336Z,9.00
2018-03-11T01:07:27.188Z,9.10
2018-03-11T01:09:55.164Z,9.10
2018-03-11T01:12:24.588Z,9.10
2018-03-11T01:14:52.881Z,9.10
2018-03-11T01:17:22.265Z,9.10
2018-03-11T01:19:49.926Z,9.10
2018-03-11T01:22:17.580Z,9.10
2018-03-11T01:24:45.373Z,9.10
2018-03-11T01:27:14.368Z,9.20
2018-03-11T01:29:42.004Z,9.00
2018-03-11T01:32:09.701Z,9.00
2018-03-11T01:34:39.056Z,9.00
2018-03-11T01:37:06.702Z,9.00
2018-03-11T01:39:34.245Z,9.00
2018-03-11T01:42:01.844Z,9.00
2018-03-11T01:44:29.409Z,9.10
2018-03-11T01:46:56.987Z,9.10
2018-03-11T01:49:24.575Z,9.00
2018-03-11T01:51:52.155Z,9.00
2018-03-11T01:54:19.740Z,9.00
2018-03-11T01:56:47.340Z,8.90
2018-03-11T01:59:14.920Z,8.90
2018-03-11T02:01:42.505Z,9.00
2018-03-11T02:04:10.115Z,9.00
2018-03-11T02:06:37.714Z,8.90
2018-03-11T02:09:05.288Z,8.90
2018-03-11T02:11:32.858Z,8.90
2018-03-11T02:14:00.445Z,8.80
2018-03-11T02:16:28.028Z,8.80
2018-03-11T02:18:56.362Z,8.60
2018-03-11T02:21:23.944Z,8.60
2018-03-11T02:23:51.508Z,8.40
2018-03-11T02:26:19.133Z,8.40
2018-03-11T02:28:46.792Z,8.30
2018-03-11T02:31:14.553Z,8.30
2018-03-11T02:33:42.216Z,8.20
2018-03-11T02:36:10.146Z,8.10
2018-03-11T02:38:37.977Z,8.00
2018-03-11T02:41:05.635Z,7.90
2018-03-11T02:43:33.250Z,7.90
2018-03-11T02:46:00.979Z,7.90
2018-03-11T02:48:29.437Z,7.90
2018-03-11T02:50:59.706Z,7.90
2018-03-11T02:53:27.640Z,7.90
2018-03-11T02:55:56.321Z,8.10
2018-03-11T02:58:26.097Z,8.10
2018-03-11T03:00:54.685Z,8.10
2018-03-11T03:03:23.252Z,8.00
2018-03-11T03:05:50.870Z,8.00
2018-03-11T03:08:19.322Z,8.00
2018-03-11T03:10:47.063Z,8.00
2018-03-11T03:13:14.808Z,8.10
2018-03-11T03:15:49.285Z,8.10
2018-03-11T03:18:20.367Z,8.10
2018-03-11T03:20:49.046Z,8.00
2018-03-11T03:23:17.619Z,8.00
2018-03-11T03:25:45.783Z,8.00
2018-03-11T03:28:14.212Z,7.70
2018-03-11T03:30:41.963Z,7.70
2018-03-11T03:33:09.536Z,7.60
2018-03-11T03:35:37.117Z,7.60
2018-03-11T03:38:04.755Z,7.50
2018-03-11T03:40:33.080Z,7.40
2018-03-11T03:43:00.708Z,7.40
2018-03-11T03:45:29.192Z,7.40
2018-03-11T03:47:56.825Z,7.40
2018-03-11T03:50:24.472Z,7.30
2018-03-11T03:52:52.935Z,7.20
2018-03-11T03:55:20.562Z,7.20
2018-03-11T03:57:49.221Z,7.10
2018-03-11T04:00:18.422Z,7.00
2018-03-11T04:02:47.329Z,7.00
2018-03-11T04:05:18.396Z,6.90
2018-03-11T04:07:46.815Z,6.90
2018-03-11T04:10:14.386Z,6.80
2018-03-11T04:12:41.978Z,6.80
2018-03-11T04:15:09.594Z,6.80
2018-03-11T04:17:38.068Z,6.70
2018-03-11T04:20:05.727Z,6.70
2018-03-11T04:22:34.087Z,6.50
2018-03-11T04:25:01.659Z,6.50
2018-03-11T04:27:31.435Z,6.50
2018-03-11T04:30:00.010Z,6.40
2018-03-11T04:32:27.942Z,6.40
2018-03-11T04:34:55.609Z,6.30
2018-03-11T04:37:23.431Z,6.30
2018-03-11T04:39:51.248Z,6.30
2018-03-11T04:42:18.935Z,6.30
2018-03-11T04:44:46.722Z,6.30
2018-03-11T04:47:14.361Z,6.10
2018-03-11T04:49:42.223Z,6.20
2018-03-11T04:52:09.952Z,6.10
2018-03-11T04:54:37.825Z,6.20
2018-03-11T04:57:05.568Z,6.20
2018-03-11T04:59:33.836Z,6.20
2018-03-11T05:02:02.227Z,6.30
2018-03-11T05:04:30.776Z,6.30
2018-03-11T05:06:58.400Z,6.30
2018-03-11T05:09:25.971Z,6.30
2018-03-11T05:11:53.544Z,6.30
2018-03-11T05:14:21.140Z,6.20
2018-03-11T05:16:48.722Z,6.20
2018-03-11T05:19:17.112Z,6.30
2018-03-11T05:21:44.700Z,6.30
2018-03-11T05:24:12.278Z,6.20
2018-03-11T05:26:41.393Z,6.10
2018-03-11T05:29:09.012Z,6.10
2018-03-11T05:31:36.592Z,6.00
2018-03-11T05:34:04.203Z,6.00
2018-03-11T05:36:32.599Z,5.90
2018-03-11T05:39:00.200Z,5.90
2018-03-11T05:41:27.809Z,5.90
2018-03-11T05:43:55.435Z,5.90
2018-03-11T05:46:23.046Z,5.80
2018-03-11T05:48:50.711Z,5.80
2018-03-11T05:51:18.484Z,5.80
2018-03-11T05:53:46.927Z,5.70
2018-03-11T05:56:14.593Z,5.70
2018-03-11T05:58:42.323Z,5.70
2018-03-11T06:01:09.998Z,5.80
2018-03-11T06:03:38.524Z,5.60
2018-03-11T06:06:07.151Z,5.60
2018-03-11T06:08:34.797Z,5.70
2018-03-11T06:11:02.382Z,5.60
2018-03-11T06:13:29.948Z,5.60
2018-03-11T06:15:57.533Z,5.70
2018-03-11T06:18:25.086Z,5.60
2018-03-11T06:20:53.414Z,5.60
2018-03-11T06:23:22.969Z,5.60
2018-03-11T06:25:50.548Z,5.60
2018-03-11T06:28:18.121Z,5.70
2018-03-11T06:30:45.732Z,5.70
2018-03-11T06:33:14.078Z,5.80
2018-03-11T06:35:41.653Z,5.80
2018-03-11T06:38:09.243Z,5.80
2018-03-11T06:40:37.575Z,5.90
2018-03-11T06:43:05.198Z,5.90
2018-03-11T06:45:32.779Z,5.80
2018-03-11T06:48:00.352Z,5.90
2018-03-11T06:50:27.928Z,6.00
2018-03-11T06:52:56.542Z,6.00
2018-03-11T06:55:24.886Z,6.30
2018-03-11T06:57:52.459Z,6.30
2018-03-11T07:00:20.063Z,6.40
2018-03-11T07:02:47.634Z,6.60
2018-03-11T07:05:15.235Z,6.80
2018-03-11T07:07:42.828Z,7.00
2018-03-11T07:10:11.187Z,7.30
2018-03-11T07:12:38.840Z,7.30
2018-03-11T07:15:06.507Z,7.50
2018-03-11T07:17:34.105Z,7.70
2018-03-11T07:20:01.677Z,7.80
2018-03-11T07:22:29.259Z,8.00
2018-03-11T07:24:56.823Z,8.20
2018-03-11T07:27:24.412Z,8.40
2018-03-11T07:29:51.994Z,8.60
2018-03-11T07:32:20.410Z,8.90
2018-03-11T07:34:48.004Z,8.90
2018-03-11T07:37:16.385Z,9.00
2018-03-11T07:39:43.942Z,9.00
2018-03-11T07:42:11.528Z,9.20
2018-03-11T07:44:39.871Z,9.60
2018-03-11T07:47:07.442Z,9.60
2018-03-11T07:49:35.027Z,9.90
2018-03-11T07:52:03.404Z,10.20
2018-03-11T07:54:31.848Z,10.40
2018-03-11T07:56:59.421Z,10.40
2018-03-11T07:59:27.017Z,10.50
2018-03-11T08:01:54.590Z,10.60
2018-03-11T08:04:22.316Z,10.80
2018-03-11T08:06:49.887Z,10.90
2018-03-11T08:09:18.218Z,11.00
2018-03-11T08:11:46.831Z,11.00
2018-03-11T08:14:16.400Z,11.10
2018-03-11T08:16:45.004Z,11.30
2018-03-11T08:19:12.587Z,11.50
2018-03-11T08:21:40.172Z,11.50
2018-03-11T08:24:07.738Z,11.60
2018-03-11T08:26:35.305Z,11.50
2018-03-11T08:29:03.168Z,11.50
2018-03-11T08:31:32.146Z,11.50
2018-03-11T08:33:59.733Z,11.50
2018-03-11T08:36:28.376Z,11.50
2018-03-11T08:38:58.275Z,11.60
2018-03-11T08:44:22.303Z,12.10
2018-03-11T08:46:50.663Z,12.50
2018-03-11T08:49:19.006Z,12.70
2018-03-11T08:51:47.567Z,12.70
2018-03-11T08:54:15.196Z,13.00
2018-03-11T08:56:43.539Z,13.40
2018-03-11T08:59:12.118Z,13.40
2018-03-11T09:01:40.721Z,13.60
2018-03-11T09:04:08.373Z,13.80
2018-03-11T09:06:35.944Z,13.90
2018-03-11T09:09:03.516Z,14.00
2018-03-11T09:11:32.747Z,14.10
2018-03-11T09:14:01.894Z,14.00
2018-03-11T09:16:32.050Z,14.00
2018-03-11T09:19:00.591Z,13.80
2018-03-11T09:21:33.150Z,13.80
2018-03-11T09:26:38.498Z,14.00
2018-03-11T09:29:06.082Z,14.00
2018-03-11T09:31:33.650Z,14.20
2018-03-11T09:34:01.239Z,14.40
2018-03-11T09:36:29.703Z,15.20
2018-03-11T09:38:57.288Z,15.20
2018-03-11T09:41:24.931Z,15.70
2018-03-11T09:43:53.269Z,16.30
2018-03-11T09:46:20.866Z,16.30
2018-03-11T09:48:49.225Z,16.80
2018-03-11T09:51:16.806Z,16.70
2018-03-11T09:53:46.180Z,16.60
2018-03-11T09:56:14.523Z,16.60
2018-03-11T09:58:42.111Z,16.60
2018-03-11T10:01:09.666Z,17.00
2018-03-11T10:03:37.251Z,17.00
2018-03-11T10:06:04.829Z,17.10
2018-03-11T10:08:33.164Z,17.50
2018-03-11T10:11:00.746Z,17.50
2018-03-11T10:13:28.354Z,17.50
2018-03-11T10:15:56.711Z,17.60
2018-03-11T10:18:25.078Z,17.60
2018-03-11T10:20:53.437Z,17.60
2018-03-11T10:23:21.010Z,17.60
2018-03-11T10:25:48.603Z,17.60
2018-03-11T10:28:16.191Z,17.70
2018-03-11T10:30:43.774Z,17.70
2018-03-11T10:33:12.146Z,17.50
2018-03-11T10:35:39.735Z,17.50
2018-03-11T10:38:08.068Z,17.50
2018-03-11T10:40:35.678Z,17.40
2018-03-11T10:43:04.035Z,17.30
2018-03-11T10:45:31.646Z,17.30
2018-03-11T10:47:59.237Z,17.20
2018-03-11T10:50:26.813Z,17.40
2018-03-11T10:52:54.396Z,17.50
2018-03-11T10:55:22.747Z,17.80
2018-03-11T10:57:50.322Z,17.80
2018-03-11T11:00:17.899Z,17.80
2018-03-11T11:02:46.228Z,17.90
2018-03-11T11:05:13.806Z,17.90
2018-03-11T11:07:41.387Z,17.60
2018-03-11T11:10:08.974Z,17.50
2018-03-11T11:12:36.580Z,17.30
2018-03-11T11:15:04.156Z,17.40
2018-03-11T11:17:31.749Z,17.30
2018-03-11T11:19:59.320Z,17.40
2018-03-11T11:22:26.952Z,17.30
2018-03-11T11:24:55.326Z,17.00
2018-03-11T11:27:23.664Z,16.80
2018-03-11T11:29:51.269Z,16.80
2018-03-11T11:32:19.605Z,16.50
2018-03-11T11:34:47.195Z,16.50
2018-03-11T11:37:14.766Z,16.30
2018-03-11T11:39:43.114Z,15.70
2018-03-11T11:42:10.677Z,15.70
2018-03-11T11:44:38.292Z,15.70
2018-03-11T11:47:05.896Z,15.60
2018-03-11T11:49:33.464Z,15.50
2018-03-11T11:52:01.055Z,15.80
2018-03-11T11:54:29.376Z,16.40
2018-03-11T11:56:56.960Z,16.40
2018-03-11T11:59:24.532Z,16.60
2018-03-11T12:01:52.080Z,16.90
2018-03-11T12:04:19.658Z,17.30
2018-03-11T12:06:47.218Z,17.70
2018-03-11T12:09:15.567Z,18.10
2018-03-11T12:11:43.146Z,18.10
2018-03-11T12:14:10.734Z,18.40
2018-03-11T12:16:40.064Z,18.80
2018-03-11T12:19:07.674Z,18.80
2018-03-11T12:21:35.235Z,18.80
2018-03-11T12:24:02.874Z,19.00
2018-03-11T12:26:30.455Z,19.10
2018-03-11T12:28:58.037Z,19.20
2018-03-11T12:31:25.614Z,19.40
2018-03-11T12:33:53.198Z,19.50
2018-03-11T12:36:20.829Z,19.30
2018-03-11T12:38:48.420Z,19.30
2018-03-11T12:41:15.995Z,19.30
2018-03-11T12:43:43.588Z,19.40
2018-03-11T12:46:11.924Z,20.00
2018-03-11T12:48:39.516Z,19.90
2018-03-11T12:51:07.083Z,20.00
2018-03-11T12:53:35.422Z,19.80
2018-03-11T12:56:02.995Z,19.70
2018-03-11T12:58:36.192Z,19.90
2018-03-11T13:01:03.735Z,19.70
2018-03-11T13:03:31.230Z,19.70
2018-03-11T13:05:59.497Z,19.80
2018-03-11T13:08:27.056Z,19.80
2018-03-11T13:10:54.583Z,19.70
2018-03-11T13:13:22.099Z,19.40
2018-03-11T13:15:49.602Z,19.40
2018-03-11T13:18:17.118Z,19.50
2018-03-11T13:20:56.524Z,19.30
2018-03-11T13:23:24.024Z,19.40
2018-03-11T13:25:51.550Z,19.30
2018-03-11T13:28:30.798Z,19.40
2018-03-11T13:30:59.074Z,19.40
2018-03-11T13:33:38.439Z,19.40
2018-03-11T13:36:05.946Z,19.40
2018-03-11T13:38:45.198Z,19.40
2018-03-11T13:41:13.577Z,18.80
2018-03-11T13:43:41.165Z,18.80
2018-03-11T13:46:20.779Z,18.60
2018-03-11T13:48:49.060Z,17.90
2018-03-11T13:51:29.128Z,17.80
2018-03-11T13:53:57.180Z,17.80
2018-03-11T13:56:25.486Z,17.50
2018-03-11T13:58:52.982Z,17.50
2018-03-11T14:01:20.481Z,17.50
2018-03-11T14:03:48.860Z,17.20
2018-03-11T14:06:16.437Z,17.20
2018-03-11T14:08:44.049Z,17.20
2018-03-11T14:11:11.609Z,17.10
2018-03-11T14:13:39.170Z,17.10
2018-03-11T14:16:06.760Z,17.00
2018-03-11T14:18:35.120Z,17.00
2018-03-11T14:21:03.456Z,17.10
2018-03-11T14:23:31.031Z,17.10
2018-03-11T14:25:58.608Z,17.10
2018-03-11T14:28:26.213Z,17.00
2018-03-11T14:30:53.803Z,16.90
2018-03-11T14:33:21.367Z,16.90
2018-03-11T14:35:48.964Z,16.70
2018-03-11T14:38:17.291Z,16.50
2018-03-11T14:40:44.882Z,16.50
2018-03-11T14:43:12.444Z,16.50
2018-03-11T14:45:40.014Z,16.50
2018-03-11T14:48:07.582Z,16.30
2018-03-11T14:50:35.912Z,16.30
2018-03-11T14:53:03.512Z,16.20
2018-03-11T14:55:31.125Z,16.20
2018-03-11T14:57:58.687Z,16.20
2018-03-11T15:00:26.284Z,16.20
2018-03-11T15:02:53.871Z,16.30
2018-03-11T15:05:22.241Z,16.20
2018-03-11T15:07:50.999Z,16.10
2018-03-11T15:12:52.576Z,16.00
2018-03-11T15:15:20.162Z,15.90
2018-03-11T15:17:48.518Z,15.90
2018-03-11T15:20:16.103Z,15.90
2018-03-11T15:22:44.440Z,15.90
2018-03-11T15:25:12.807Z,16.00
2018-03-11T15:27:40.380Z,16.00
2018-03-11T15:30:08.040Z,16.00
2018-03-11T15:32:35.712Z,16.10
2018-03-11T15:35:03.314Z,16.10
2018-03-11T15:37:30.900Z,16.10
2018-03-11T15:39:58.514Z,16.10
2018-03-11T15:42:26.874Z,16.00
2018-03-11T15:44:54.495Z,16.00
2018-03-11T15:47:22.089Z,15.90
2018-03-11T15:49:50.426Z,15.70
2018-03-11T15:52:18.020Z,15.70
2018-03-11T15:54:45.613Z,15.70
2018-03-11T15:57:13.955Z,15.60
2018-03-11T15:59:41.516Z,15.60
2018-03-11T16:02:09.108Z,15.60
2018-03-11T16:04:37.472Z,15.50
2018-03-11T16:07:05.039Z,15.50
2018-03-11T16:09:32.627Z,15.50
2018-03-11T16:12:00.319Z,15.30
2018-03-11T16:14:28.108Z,15.30
2018-03-11T16:16:55.723Z,15.30
2018-03-11T16:19:23.295Z,15.30
2018-03-11T16:21:50.891Z,15.20
2018-03-11T16:24:28.382Z,15.00
2018-03-11T16:27:09.888Z,14.80
2018-03-11T16:29:37.469Z,14.80
2018-03-11T16:35:17.473Z,14.40
2018-03-11T16:37:45.080Z,14.30
2018-03-11T16:43:13.554Z,14.10
2018-03-11T16:45:41.119Z,14.10
2018-03-11T16:48:11.134Z,14.10
2018-03-11T16:57:07.695Z,14.00
2018-03-11T17:02:42.633Z,13.80
2018-03-11T17:05:10.650Z,13.60
2018-03-11T20:41:48.551Z,11.70
2018-03-11T20:44:16.138Z,11.70
2018-03-11T20:46:43.887Z,11.70
2018-03-11T20:49:12.304Z,11.80
2018-03-11T20:51:40.652Z,11.80
2018-03-11T20:54:08.235Z,11.80
2018-03-11T20:56:35.828Z,11.80
2018-03-11T20:59:03.442Z,11.80
2018-03-11T21:01:31.003Z,11.80
2018-03-11T21:03:58.568Z,11.80
2018-03-11T21:06:26.324Z,11.70
2018-03-11T21:08:54.874Z,11.60
2018-03-11T21:11:22.542Z,11.60
2018-03-11T21:13:50.814Z,11.40
2018-03-11T21:16:18.425Z,11.40
2018-03-11T21:18:46.783Z,11.30
2018-03-11T21:21:14.359Z,11.30
2018-03-11T21:23:42.717Z,11.40
2018-03-11T21:26:10.275Z,11.40
2018-03-11T21:28:37.872Z,11.40
2018-03-11T21:31:06.246Z,11.40
2018-03-11T21:33:34.613Z,11.30
2018-03-11T21:36:02.226Z,11.30
2018-03-11T21:38:30.244Z,11.20
2018-03-11T21:40:58.675Z,11.20
2018-03-11T21:43:26.865Z,11.20
2018-03-11T21:45:54.498Z,11.20
2018-03-11T21:48:22.162Z,11.30
2018-03-11T21:50:49.750Z,11.30
2018-03-11T21:53:17.353Z,11.20
2018-03-11T21:55:45.750Z,11.30
2018-03-11T21:58:13.421Z,11.20
2018-03-11T22:00:41.136Z,11.30
2018-03-11T22:03:08.740Z,11.20
2018-03-11T22:05:36.319Z,11.10
2018-03-11T22:08:03.922Z,11.10
2018-03-11T22:10:31.492Z,11.00
2018-03-11T22:12:59.083Z,11.10
2018-03-11T22:15:27.603Z,11.20
2018-03-11T22:17:55.322Z,11.10
2018-03-11T22:20:22.930Z,11.20
2018-03-11T22:22:54.073Z,11.20
2018-03-11T22:25:21.723Z,11.10
2018-03-11T22:27:49.300Z,11.10
2018-03-11T22:30:16.888Z,11.00
2018-03-11T22:32:45.264Z,10.90
2018-03-11T22:35:13.595Z,10.80
2018-03-11T22:37:41.203Z,10.70
2018-03-11T22:40:09.539Z,10.70
2018-03-11T22:42:37.123Z,10.70
2018-03-11T22:45:04.731Z,10.60
2018-03-11T22:47:32.335Z,10.60
2018-03-11T22:49:59.923Z,10.60
2018-03-11T22:52:28.256Z,10.70
2018-03-11T22:54:55.860Z,10.70
2018-03-11T22:57:24.229Z,10.80
2018-03-11T22:59:51.811Z,10.70
2018-03-11T23:02:19.418Z,10.70
2018-03-11T23:04:46.986Z,10.60
2018-03-11T23:07:14.573Z,10.60
2018-03-11T23:09:42.163Z,10.60
2018-03-11T23:12:09.772Z,10.60
2018-03-11T23:14:37.356Z,10.50
2018-03-11T23:17:04.996Z,10.50
2018-03-11T23:19:33.526Z,10.50
2018-03-11T23:22:01.139Z,10.50
2018-03-11T23:24:28.739Z,10.50
2018-03-11T23:26:57.076Z,10.40
2018-03-11T23:29:24.960Z,10.40
2018-03-11T23:31:52.577Z,10.40
2018-03-11T23:34:20.197Z,10.40
2018-03-11T23:36:48.557Z,10.50
2018-03-11T23:39:16.244Z,10.50
2018-03-11T23:41:43.852Z,10.40
2018-03-11T23:44:11.414Z,10.40
2018-03-11T23:46:39.016Z,10.40
2018-03-11T23:49:07.361Z,10.40
2018-03-11T23:51:34.963Z,10.40
2018-03-11T23:54:03.311Z,10.40
2018-03-11T23:56:30.914Z,10.40
2018-03-11T23:58:58.586Z,10.50
